createdAt,value
2023-11-23T00:02:09.449Z,98900.66
2023-11-23T00:04:39.841Z,98891.56
2023-11-23T00:07:08.476Z,98875.22
2023-11-23T00:09:37.319Z,98877.06
2023-11-23T00:12:07.021Z,98879.06
2023-11-23T00:14:35.472Z,98876.84
2023-11-23T00:17:03.943Z,98868.38
2023-11-23T00:19:32.377Z,98877.19
2023-11-23T00:22:03.612Z,98873.81
2023-11-23T00:24:32.401Z,98864.16
2023-11-23T00:27:00.905Z,98866.19
2023-11-23T00:29:29.653Z,98859.13
2023-11-23T00:31:58.847Z,98855.31
2023-11-23T00:34:27.486Z,98848.19
2023-11-23T00:36:57.463Z,98845.44
2023-11-23T00:39:27.731Z,98839.59
2023-11-23T00:41:56.604Z,98828.53
2023-11-23T00:44:25.152Z,98830.69
2023-11-23T00:46:53.844Z,98823.28
2023-11-23T00:49:23.224Z,98822.16
2023-11-23T00:51:51.718Z,98810.66
2023-11-23T00:54:21.464Z,98813.47
2023-11-23T00:56:52.241Z,98803.44
2023-11-23T00:59:20.515Z,98796.84
2023-11-23T01:01:49.424Z,98793.50
2023-11-23T01:04:18.023Z,98785.88
2023-11-23T01:06:47.353Z,98791.03
2023-11-23T01:09:16.769Z,98791.06
2023-11-23T01:11:45.550Z,98777.34
2023-11-23T01:14:15.749Z,98778.50
2023-11-23T01:16:44.224Z,98779.31
2023-11-23T01:19:12.953Z,98782.00
2023-11-23T01:21:41.688Z,98770.50
2023-11-23T01:24:11.309Z,98769.16
2023-11-23T01:26:40.084Z,98766.16
2023-11-23T01:29:08.813Z,98753.53
2023-11-23T01:31:39.249Z,98752.78
2023-11-23T01:34:07.603Z,98754.38
2023-11-23T01:36:37.017Z,98752.22
2023-11-23T01:39:06.284Z,98750.53
2023-11-23T01:41:34.903Z,98750.53
2023-11-23T01:44:03.485Z,98733.28
2023-11-23T01:46:32.773Z,98735.22
2023-11-23T01:49:03.772Z,98735.22
2023-11-23T01:51:32.913Z,98723.47
2023-11-23T01:54:01.470Z,98714.16
2023-11-23T01:56:30.861Z,98712.78
2023-11-23T01:59:00.541Z,98703.22
2023-11-23T02:01:29.312Z,98695.22
2023-11-23T02:03:57.622Z,98693.34
2023-11-23T02:06:27.604Z,98698.31
2023-11-23T02:08:55.952Z,98696.38
2023-11-23T02:11:24.656Z,98673.06
2023-11-23T02:13:52.940Z,98679.94
2023-11-23T02:16:22.611Z,98675.81
2023-11-23T02:18:50.886Z,98680.19
2023-11-23T02:21:19.437Z,98678.56
2023-11-23T02:23:49.185Z,98669.53
2023-11-23T02:26:19.470Z,98669.53
2023-11-23T02:28:48.074Z,98670.91
2023-11-23T02:31:16.504Z,98665.47
2023-11-23T02:33:44.800Z,98676.09
2023-11-23T02:36:13.845Z,98670.94
2023-11-23T02:38:42.198Z,98679.66
2023-11-23T02:41:10.784Z,98675.28
2023-11-23T02:43:40.768Z,98674.72
2023-11-23T02:46:09.329Z,98655.59
2023-11-23T02:48:37.721Z,98653.41
2023-11-23T02:51:06.307Z,98646.56
2023-11-23T02:53:44.837Z,98641.63
2023-11-23T02:56:13.790Z,98632.31
2023-11-23T02:58:43.477Z,98644.84
2023-11-23T03:01:11.977Z,98642.19
2023-11-23T03:03:40.625Z,98638.63
2023-11-23T03:06:10.505Z,98640.53
2023-11-23T03:08:38.989Z,98633.13
2023-11-23T03:11:07.964Z,98623.59
2023-11-23T03:13:36.760Z,98617.53
2023-11-23T03:16:07.426Z,98621.84
2023-11-23T03:18:36.143Z,98620.03
2023-11-23T03:21:05.095Z,98626.84
2023-11-23T03:23:33.319Z,98614.53
2023-11-23T03:26:02.019Z,98622.75
2023-11-23T03:28:30.333Z,98614.53
2023-11-23T03:30:59.056Z,98619.19
2023-11-23T03:33:28.956Z,98596.56
2023-11-23T03:35:58.152Z,98595.38
2023-11-23T03:38:26.381Z,98590.06
2023-11-23T03:40:55.196Z,98590.38
2023-11-23T03:43:23.514Z,98589.78
2023-11-23T03:45:52.104Z,98584.84
2023-11-23T03:48:21.090Z,98577.72
2023-11-23T03:50:51.228Z,98580.94
2023-11-23T03:53:19.391Z,98572.81
2023-11-23T03:55:49.070Z,98561.66
2023-11-23T03:58:17.224Z,98554.50
2023-11-23T04:00:46.073Z,98558.66
2023-11-23T04:03:14.725Z,98553.69
2023-11-23T04:05:44.093Z,98551.00
2023-11-23T04:08:13.890Z,98563.59
2023-11-23T04:10:42.591Z,98564.59
2023-11-23T04:13:13.909Z,98553.66
2023-11-23T04:15:42.339Z,98543.38
2023-11-23T04:18:10.648Z,98551.44
2023-11-23T04:20:39.249Z,98545.63
2023-11-23T04:23:07.509Z,98541.56
2023-11-23T04:25:37.517Z,98536.03
2023-11-23T04:28:05.880Z,98522.22
2023-11-23T04:30:34.414Z,98523.59
2023-11-23T04:33:02.963Z,98520.03
2023-11-23T04:35:31.557Z,98515.53
2023-11-23T04:38:00.654Z,98516.91
2023-11-23T04:40:29.148Z,98515.69
2023-11-23T04:42:58.778Z,98503.06
2023-11-23T04:45:27.293Z,98505.06
2023-11-23T04:47:55.677Z,98510.72
2023-11-23T04:50:24.519Z,98507.88
2023-11-23T04:52:52.833Z,98487.38
2023-11-23T04:55:21.740Z,98480.28
2023-11-23T04:57:51.695Z,98484.13
2023-11-23T05:00:26.331Z,98478.66
2023-11-23T05:02:55.822Z,98469.25
2023-11-23T05:05:24.411Z,98458.13
2023-11-23T05:07:52.691Z,98450.16
2023-11-23T05:10:21.852Z,98443.41
2023-11-23T05:12:52.819Z,98436.78
2023-11-23T05:15:22.744Z,98430.41
2023-11-23T05:17:51.079Z,98430.53
2023-11-23T05:20:20.104Z,98421.78
2023-11-23T05:22:48.235Z,98426.81
2023-11-23T05:25:16.823Z,98421.53
2023-11-23T05:27:45.013Z,98426.78
2023-11-23T05:30:14.297Z,98417.84
2023-11-23T05:32:43.986Z,98423.50
2023-11-23T05:35:14.208Z,98418.81
2023-11-23T05:37:42.422Z,98402.59
2023-11-23T05:40:13.456Z,98409.16
2023-11-23T05:42:47.922Z,98405.97
2023-11-23T05:45:23.270Z,98397.63
2023-11-23T05:47:53.856Z,98390.88
2023-11-23T05:50:22.600Z,98380.50
2023-11-23T05:52:50.971Z,98376.69
2023-11-23T05:55:19.492Z,98376.69
2023-11-23T05:57:50.854Z,98389.22
2023-11-23T06:00:20.144Z,98385.53
2023-11-23T06:02:48.740Z,98358.09
2023-11-23T06:05:20.384Z,98375.63
2023-11-23T06:07:48.724Z,98358.09
2023-11-23T06:10:17.813Z,98359.44
2023-11-23T06:12:47.292Z,98347.59
2023-11-23T06:15:15.092Z,98335.41
2023-11-23T06:17:43.558Z,98352.53
2023-11-23T06:20:15.538Z,98345.25
2023-11-23T06:22:45.450Z,98346.16
2023-11-23T06:25:14.678Z,98335.28
2023-11-23T06:27:45.969Z,98317.94
2023-11-23T06:30:16.890Z,98340.53
2023-11-23T06:32:45.088Z,98337.03
2023-11-23T06:35:13.668Z,98323.78
2023-11-23T06:37:42.435Z,98324.69
2023-11-23T06:40:13.350Z,98321.97
2023-11-23T06:42:42.121Z,98305.94
2023-11-23T06:45:14.996Z,98320.56
2023-11-23T06:47:43.373Z,98319.41
2023-11-23T06:50:12.030Z,98319.47
2023-11-23T06:52:43.020Z,98307.53
2023-11-23T06:55:15.301Z,98321.78
2023-11-23T06:57:48.295Z,98305.72
2023-11-23T07:00:23.631Z,98291.50
2023-11-23T07:02:52.690Z,98273.84
2023-11-23T07:05:21.572Z,98292.91
2023-11-23T07:07:50.276Z,98290.84
2023-11-23T07:10:22.813Z,98292.84
2023-11-23T07:12:52.009Z,98263.59
2023-11-23T07:15:20.629Z,98253.78
2023-11-23T07:17:49.262Z,98269.28
2023-11-23T07:20:19.657Z,98258.84
2023-11-23T07:22:47.887Z,98268.41
2023-11-23T07:25:16.381Z,98269.13
2023-11-23T07:27:46.129Z,98248.97
2023-11-23T07:30:15.684Z,98250.91
2023-11-23T07:32:43.996Z,98250.22
2023-11-23T07:35:13.835Z,98273.38
2023-11-23T07:37:42.198Z,98253.09
2023-11-23T07:40:15.597Z,98263.00
2023-11-23T07:42:45.653Z,98252.75
2023-11-23T07:45:14.708Z,98244.06
2023-11-23T07:47:44.165Z,98248.44
2023-11-23T07:50:13.238Z,98249.47
2023-11-23T07:52:41.609Z,98231.59
2023-11-23T07:55:12.138Z,98250.97
2023-11-23T07:57:40.451Z,98219.16
2023-11-23T08:00:11.605Z,98243.78
2023-11-23T08:02:39.819Z,98251.53
2023-11-23T08:05:10.613Z,98266.03
2023-11-23T08:07:39.212Z,98282.22
2023-11-23T08:10:09.941Z,98262.13
2023-11-23T08:12:38.152Z,98264.91
2023-11-23T08:15:08.217Z,98251.66
2023-11-23T08:17:38.518Z,98238.50
2023-11-23T08:20:09.597Z,98240.56
2023-11-23T08:22:38.347Z,98240.00
2023-11-23T08:25:07.493Z,98232.63
2023-11-23T08:27:36.602Z,98244.94
2023-11-23T08:30:07.639Z,98233.16
2023-11-23T08:32:37.436Z,98222.88
2023-11-23T08:35:09.513Z,98220.47
2023-11-23T08:37:37.781Z,98213.03
2023-11-23T08:40:08.215Z,98220.69
2023-11-23T08:42:36.623Z,98230.38
2023-11-23T08:45:06.288Z,98246.53
2023-11-23T08:47:34.645Z,98223.84
2023-11-23T08:50:07.151Z,98198.50
2023-11-23T08:52:35.585Z,98202.69
2023-11-23T08:55:04.830Z,98178.66
2023-11-23T08:57:33.328Z,98223.03
2023-11-23T09:00:02.908Z,98207.94
2023-11-23T09:02:34.763Z,98196.09
2023-11-23T09:05:07.230Z,98184.66
2023-11-23T09:07:35.763Z,98184.97
2023-11-23T09:10:04.536Z,98177.13
2023-11-23T09:12:35.344Z,98183.41
2023-11-23T09:15:06.315Z,98162.53
2023-11-23T09:17:35.343Z,98162.13
2023-11-23T09:20:07.507Z,98156.31
2023-11-23T09:22:37.166Z,98147.63
2023-11-23T09:25:07.757Z,98142.94
2023-11-23T09:27:36.690Z,98144.56
2023-11-23T09:30:08.233Z,98135.25
2023-11-23T09:32:38.154Z,98122.16
2023-11-23T09:35:11.610Z,98107.50
2023-11-23T09:37:40.823Z,98121.47
2023-11-23T09:40:12.662Z,98116.19
2023-11-23T09:42:41.028Z,98113.28
2023-11-23T09:45:14.046Z,98090.91
2023-11-23T09:47:42.784Z,98087.09
2023-11-23T09:50:13.520Z,98109.03
2023-11-23T09:52:43.242Z,98101.94
2023-11-23T09:55:15.711Z,98086.31
2023-11-23T09:57:45.355Z,98091.94
2023-11-23T10:00:16.273Z,98097.44
2023-11-23T10:02:45.899Z,98081.53
2023-11-23T10:05:16.795Z,98077.25
2023-11-23T10:07:46.261Z,98073.03
2023-11-23T10:10:16.501Z,98097.34
2023-11-23T10:12:47.197Z,98079.31
2023-11-23T10:15:16.766Z,98064.13
2023-11-23T10:17:45.255Z,98066.22
2023-11-23T10:20:17.039Z,98055.09
2023-11-23T10:22:46.306Z,98057.09
2023-11-23T10:25:25.873Z,98040.31
2023-11-23T10:27:57.436Z,98043.22
2023-11-23T10:30:26.736Z,98055.63
2023-11-23T10:32:56.048Z,98032.31
2023-11-23T10:35:31.013Z,97992.28
2023-11-23T10:37:59.578Z,98003.78
2023-11-23T10:40:30.567Z,97998.19
2023-11-23T10:43:00.974Z,97999.03
2023-11-23T10:45:32.652Z,97983.31
2023-11-23T10:48:03.130Z,97992.34
2023-11-23T10:50:34.801Z,97978.19
2023-11-23T10:53:03.552Z,97962.53
2023-11-23T10:55:32.837Z,97977.69
2023-11-23T10:58:07.044Z,97967.53
2023-11-23T11:00:36.580Z,97966.78
2023-11-23T11:03:07.059Z,97960.69
2023-11-23T11:05:47.523Z,97928.13
2023-11-23T11:08:19.998Z,97918.06
2023-11-23T11:10:51.998Z,97921.13
2023-11-23T11:13:23.482Z,97904.25
2023-11-23T11:15:54.120Z,97886.94
2023-11-23T11:18:24.215Z,97885.16
2023-11-23T11:21:13.411Z,97890.16
2023-11-23T11:23:45.665Z,97888.41
2023-11-23T11:26:18.375Z,97879.94
2023-11-23T11:28:55.479Z,97868.56
2023-11-23T11:31:33.116Z,97875.66
2023-11-23T11:34:03.199Z,97874.41
2023-11-23T11:36:34.992Z,97838.19
2023-11-23T11:39:06.934Z,97855.59
2023-11-23T11:41:39.769Z,97849.09
2023-11-23T11:44:09.360Z,97851.53
2023-11-23T11:46:38.737Z,97847.00
2023-11-23T11:49:08.115Z,97838.72
2023-11-23T11:51:38.585Z,97862.84
2023-11-23T11:54:08.383Z,97854.03
2023-11-23T11:56:40.608Z,97846.78
2023-11-23T11:59:09.192Z,97831.00
2023-11-23T12:01:38.052Z,97816.81
2023-11-23T12:04:07.026Z,97824.16
2023-11-23T12:06:38.378Z,97807.28
2023-11-23T12:09:13.579Z,97794.41
2023-11-23T12:11:45.247Z,97788.50
2023-11-23T12:14:14.022Z,97781.47
2023-11-23T12:16:42.801Z,97811.47
2023-11-23T12:19:18.624Z,97780.75
2023-11-23T12:21:55.047Z,97790.06
2023-11-23T12:24:23.540Z,97780.00
2023-11-23T12:26:53.873Z,97784.38
2023-11-23T12:29:24.007Z,97789.06
2023-11-23T12:31:52.871Z,97775.19
2023-11-23T12:34:21.732Z,97768.03
2023-11-23T12:36:52.064Z,97762.56
2023-11-23T12:39:21.463Z,97711.03
2023-11-23T12:41:55.139Z,97755.13
2023-11-23T12:44:24.479Z,97732.25
2023-11-23T12:46:53.449Z,97765.97
2023-11-23T12:49:22.425Z,97768.56
2023-11-23T12:51:53.752Z,97753.16
2023-11-23T12:54:22.684Z,97739.25
2023-11-23T12:56:53.269Z,97764.41
2023-11-23T12:59:21.895Z,97731.75
2023-11-23T13:01:52.015Z,97743.13
2023-11-23T13:04:21.652Z,97731.63
2023-11-23T13:06:50.349Z,97726.41
2023-11-23T13:09:26.654Z,97741.06
2023-11-23T13:11:58.307Z,97713.16
2023-11-23T13:14:26.799Z,97730.81
2023-11-23T13:16:55.359Z,97722.69
2023-11-23T13:19:30.638Z,97721.25
2023-11-23T13:22:06.366Z,97722.91
2023-11-23T13:24:38.139Z,97732.31
2023-11-23T13:27:08.117Z,97730.72
2023-11-23T13:29:38.905Z,97725.66
2023-11-23T13:32:08.330Z,97727.94
2023-11-23T13:34:37.739Z,97698.94
2023-11-23T13:37:06.959Z,97724.00
2023-11-23T13:39:38.258Z,97701.03
2023-11-23T13:42:09.061Z,97643.66
2023-11-23T13:44:37.587Z,97655.75
2023-11-23T13:47:08.125Z,97681.38
2023-11-23T13:49:36.604Z,97671.28
2023-11-23T13:52:06.203Z,97670.06
2023-11-23T13:54:36.552Z,97648.59
2023-11-23T13:57:06.845Z,97647.91
2023-11-23T13:59:35.687Z,97651.59
2023-11-23T14:02:06.115Z,97642.34
2023-11-23T14:04:34.784Z,97626.16
2023-11-23T14:07:03.742Z,97639.25
2023-11-23T14:09:32.918Z,97667.94
2023-11-23T14:12:05.151Z,97627.94
2023-11-23T14:14:33.516Z,97636.72
2023-11-23T14:17:02.432Z,97617.03
2023-11-23T14:19:30.740Z,97631.06
2023-11-23T14:22:02.128Z,97600.56
2023-11-23T14:24:31.791Z,97589.19
2023-11-23T14:27:02.075Z,97610.72
2023-11-23T14:29:34.293Z,97612.28
2023-11-23T14:32:04.741Z,97605.59
2023-11-23T14:34:33.067Z,97594.63
2023-11-23T14:37:01.987Z,97608.88
2023-11-23T14:39:30.351Z,97598.00
2023-11-23T14:41:59.531Z,97561.38
2023-11-23T14:44:28.157Z,97581.06
2023-11-23T14:46:57.694Z,97596.53
2023-11-23T14:49:26.442Z,97570.31
2023-11-23T14:51:57.013Z,97569.03
2023-11-23T14:54:34.535Z,97571.91
2023-11-23T14:57:08.961Z,97563.88
2023-11-23T14:59:38.286Z,97588.38
2023-11-23T15:02:10.267Z,97581.91
2023-11-23T15:04:38.989Z,97564.75
2023-11-23T15:07:08.429Z,97543.53
2023-11-23T15:09:37.250Z,97561.25
2023-11-23T15:12:07.888Z,97585.03
2023-11-23T15:14:36.829Z,97560.69
2023-11-23T15:17:05.885Z,97544.31
2023-11-23T15:19:37.962Z,97554.16
2023-11-23T15:22:07.726Z,97544.81
2023-11-23T15:24:37.128Z,97535.19
2023-11-23T15:27:08.813Z,97523.91
2023-11-23T15:29:38.055Z,97516.06
2023-11-23T15:32:08.506Z,97501.22
2023-11-23T15:34:38.848Z,97517.13
2023-11-23T15:37:07.658Z,97522.38
2023-11-23T15:39:36.524Z,97508.53
2023-11-23T15:42:09.060Z,97519.44
2023-11-23T15:44:38.460Z,97511.59
2023-11-23T15:47:07.162Z,97519.84
2023-11-23T15:49:36.051Z,97501.84
2023-11-23T15:52:07.508Z,97503.22
2023-11-23T15:54:36.273Z,97502.78
2023-11-23T15:57:06.352Z,97507.69
2023-11-23T15:59:35.769Z,97488.78
2023-11-23T16:02:04.992Z,97493.91
2023-11-23T16:04:33.667Z,97486.84
2023-11-23T16:07:04.040Z,97492.50
2023-11-23T16:09:34.069Z,97483.00
2023-11-23T16:12:02.631Z,97493.63
2023-11-23T16:14:31.196Z,97474.59
2023-11-23T16:17:00.048Z,97484.91
2023-11-23T16:19:28.884Z,97485.00
2023-11-23T16:21:57.445Z,97463.03
2023-11-23T16:24:26.016Z,97456.25
2023-11-23T16:26:55.982Z,97450.63
2023-11-23T16:29:24.578Z,97448.09
2023-11-23T16:31:52.954Z,97424.06
2023-11-23T16:34:22.102Z,97432.97
2023-11-23T16:36:50.557Z,97427.06
2023-11-23T16:39:20.145Z,97425.56
2023-11-23T16:41:49.358Z,97418.38
2023-11-23T16:44:19.580Z,97411.00
2023-11-23T16:46:48.171Z,97376.09
2023-11-23T16:49:17.225Z,97383.88
2023-11-23T16:51:45.663Z,97392.50
2023-11-23T16:54:15.788Z,97389.03
2023-11-23T16:56:44.282Z,97367.97
2023-11-23T16:59:13.070Z,97385.91
2023-11-23T17:01:44.795Z,97374.50
2023-11-23T17:04:14.314Z,97376.66
2023-11-23T17:06:45.488Z,97356.47
2023-11-23T17:09:15.234Z,97375.13
2023-11-23T17:11:47.062Z,97364.28
2023-11-23T17:14:16.055Z,97342.50
2023-11-23T17:16:46.088Z,97351.25
2023-11-23T17:19:14.839Z,97307.78
2023-11-23T17:21:46.821Z,97325.94
2023-11-23T17:24:16.271Z,97336.91
2023-11-23T17:26:45.118Z,97325.91
2023-11-23T17:29:14.507Z,97319.13
2023-11-23T17:31:44.229Z,97314.41
2023-11-23T17:34:14.352Z,97305.03
2023-11-23T17:36:43.020Z,97316.34
2023-11-23T17:39:17.105Z,97307.34
2023-11-23T17:41:46.748Z,97313.50
2023-11-23T17:44:15.995Z,97318.94
2023-11-23T17:46:44.845Z,97300.56
2023-11-23T17:49:17.275Z,97297.28
2023-11-23T17:51:46.394Z,97282.41
2023-11-23T17:54:16.309Z,97277.81
2023-11-23T17:56:44.862Z,97263.97
2023-11-23T17:59:25.766Z,97258.66
2023-11-23T18:02:05.381Z,97233.88
2023-11-23T18:04:35.996Z,97256.34
2023-11-23T18:07:05.025Z,97246.41
2023-11-23T18:09:35.895Z,97235.28
2023-11-23T18:12:04.713Z,97227.63
2023-11-23T18:14:33.464Z,97223.75
2023-11-23T18:17:01.838Z,97216.72
2023-11-23T18:19:34.014Z,97191.78
2023-11-23T18:22:04.096Z,97213.16
2023-11-23T18:24:32.981Z,97217.56
2023-11-23T18:27:03.447Z,97220.59
2023-11-23T18:29:32.091Z,97224.75
2023-11-23T18:32:04.219Z,97210.31
2023-11-23T18:34:35.067Z,97200.34
2023-11-23T18:37:05.092Z,97193.47
2023-11-23T18:39:33.947Z,97172.44
2023-11-23T18:42:02.485Z,97188.53
2023-11-23T18:44:31.023Z,97163.19
2023-11-23T18:47:01.312Z,97152.50
2023-11-23T18:49:31.860Z,97146.31
2023-11-23T18:52:00.793Z,97144.38
2023-11-23T18:54:31.426Z,97117.44
2023-11-23T18:57:00.208Z,97113.59
2023-11-23T18:59:28.848Z,97114.50
2023-11-23T19:01:57.515Z,97091.66
2023-11-23T19:04:26.435Z,97097.28
2023-11-23T19:06:56.369Z,97082.50
2023-11-23T19:09:28.787Z,97058.09
2023-11-23T19:11:58.869Z,97037.84
2023-11-23T19:14:27.592Z,97051.00
2023-11-23T19:16:56.338Z,97026.22
2023-11-23T19:19:26.283Z,97026.38
2023-11-23T19:21:55.113Z,97014.56
2023-11-23T19:24:25.579Z,97013.22
2023-11-23T19:26:54.501Z,96995.66
2023-11-23T19:29:35.370Z,96939.50
2023-11-23T19:32:12.524Z,96983.63
2023-11-23T19:34:43.627Z,96967.25
2023-11-23T19:37:12.874Z,96983.19
2023-11-23T19:39:44.856Z,96961.09
2023-11-23T19:42:17.211Z,96965.09
2023-11-23T19:44:48.495Z,96957.91
2023-11-23T19:47:18.121Z,96950.72
2023-11-23T19:49:48.503Z,96936.16
2023-11-23T19:52:24.053Z,96888.19
2023-11-23T19:54:53.379Z,96919.66
2023-11-23T19:57:22.189Z,96922.16
2023-11-23T19:59:52.293Z,96899.00
2023-11-23T20:02:22.191Z,96910.06
2023-11-23T20:04:51.166Z,96916.00
2023-11-23T20:07:19.659Z,96888.50
2023-11-23T20:09:48.848Z,96860.72
2023-11-23T20:12:18.380Z,96884.56
2023-11-23T20:14:47.292Z,96863.56
2023-11-23T20:17:18.420Z,96855.34
2023-11-23T20:19:48.562Z,96843.84
2023-11-23T20:22:17.401Z,96832.34
2023-11-23T20:24:47.585Z,96838.19
2023-11-23T20:27:16.973Z,96833.59
2023-11-23T20:29:46.608Z,96820.41
2023-11-23T20:32:16.526Z,96823.03
2023-11-23T20:34:48.333Z,96840.34
2023-11-23T20:37:17.293Z,96827.97
2023-11-23T20:39:46.332Z,96821.56
2023-11-23T20:42:14.957Z,96819.47
2023-11-23T20:44:45.144Z,96816.41
2023-11-23T20:47:14.074Z,96810.31
2023-11-23T20:49:44.984Z,96812.84
2023-11-23T20:52:15.235Z,96817.16
2023-11-23T20:54:44.339Z,96799.88
2023-11-23T20:57:13.757Z,96767.41
2023-11-23T20:59:43.147Z,96809.69
2023-11-23T21:02:12.287Z,96791.09
2023-11-23T21:04:41.993Z,96728.94
2023-11-23T21:07:12.923Z,96775.97
2023-11-23T21:09:42.149Z,96762.50
2023-11-23T21:12:17.457Z,96758.56
2023-11-23T21:14:53.383Z,96767.66
2023-11-23T21:17:23.274Z,96746.44
2023-11-23T21:19:53.962Z,96757.78
2023-11-23T21:22:23.861Z,96758.50
2023-11-23T21:24:52.612Z,96757.56
2023-11-23T21:27:27.129Z,96752.56
2023-11-23T21:29:55.808Z,96748.50
2023-11-23T21:32:24.268Z,96727.22
2023-11-23T21:34:53.540Z,96741.88
2023-11-23T21:37:23.532Z,96716.66
2023-11-23T21:39:54.044Z,96712.94
2023-11-23T21:42:23.513Z,96692.53
2023-11-23T21:44:52.400Z,96695.34
2023-11-23T21:47:21.298Z,96693.94
2023-11-23T21:49:50.128Z,96683.91
2023-11-23T21:52:18.599Z,96672.13
2023-11-23T21:54:57.443Z,96641.28
2023-11-23T21:57:31.807Z,96659.25
2023-11-23T22:00:00.579Z,96647.97
2023-11-23T22:02:29.309Z,96644.78
2023-11-23T22:04:58.113Z,96625.97
2023-11-23T22:07:27.124Z,96632.91
2023-11-23T22:09:57.404Z,96623.59
2023-11-23T22:12:26.362Z,96626.38
2023-11-23T22:14:55.084Z,96628.88
2023-11-23T22:17:24.347Z,96616.38
2023-11-23T22:19:54.060Z,96606.47
2023-11-23T22:22:23.082Z,96605.28
2023-11-23T22:24:52.596Z,96598.66
2023-11-23T22:27:24.224Z,96600.03
2023-11-23T22:29:53.488Z,96583.81
2023-11-23T22:32:22.467Z,96584.03
2023-11-23T22:34:51.489Z,96544.75
2023-11-23T22:37:20.174Z,96572.50
2023-11-23T22:39:49.343Z,96559.81
2023-11-23T22:42:18.442Z,96556.59
2023-11-23T22:44:49.005Z,96542.16
2023-11-23T22:47:17.400Z,96548.66
2023-11-23T22:49:47.597Z,96534.28
2023-11-23T22:52:17.067Z,96516.09
2023-11-23T22:54:45.740Z,96561.19
2023-11-23T22:57:13.956Z,96528.00
2023-11-23T22:59:42.714Z,96536.09
2023-11-23T23:02:12.355Z,96521.25
2023-11-23T23:04:41.325Z,96522.78
2023-11-23T23:07:10.632Z,96500.66
2023-11-23T23:09:39.659Z,96512.00
2023-11-23T23:12:08.401Z,96514.44
2023-11-23T23:14:38.585Z,96505.13
2023-11-23T23:17:06.955Z,96499.50
2023-11-23T23:19:37.222Z,96495.53
2023-11-23T23:22:16.820Z,96476.16
2023-11-23T23:24:52.962Z,96474.41
2023-11-23T23:27:21.508Z,96464.69
2023-11-23T23:29:50.184Z,96471.00
2023-11-23T23:32:18.452Z,96462.66
2023-11-23T23:34:48.415Z,96436.53
2023-11-23T23:37:16.892Z,96434.22
2023-11-23T23:39:45.445Z,96427.94
2023-11-23T23:42:14.122Z,96433.41
2023-11-23T23:44:43.118Z,96423.22
2023-11-23T23:47:12.018Z,96372.44
2023-11-23T23:49:40.676Z,96377.38
2023-11-23T23:52:10.398Z,96410.84
2023-11-23T23:54:38.925Z,96409.97
2023-11-23T23:57:07.468Z,96403.72
2023-11-23T23:59:36.333Z,96405.66
